sensor_id;sensor_type;location;lat;lon;timestamp;noise_LAeq;noise_LA_min;noise_LA_max;noise_LA01;noise_LA95
47109;Laerm;32856;51.422;6.794;2023-04-03T00:01:14;54.03;49.53;62.47;;
47109;Laerm;32856;51.422;6.794;2023-04-03T00:03:41;53.36;47.32;58.96;;
47109;Laerm;32856;51.422;6.794;2023-04-03T00:06:09;52.55;47.72;57.01;;
47109;Laerm;32856;51.422;6.794;2023-04-03T00:08:37;53.36;48.69;57.62;;
47109;Laerm;32856;51.422;6.794;2023-04-03T00:11:06;54.79;49.96;59.40;;
47109;Laerm;32856;51.422;6.794;2023-04-03T00:13:33;54.14;46.55;64.61;;
47109;Laerm;32856;51.422;6.794;2023-04-03T00:16:02;56.65;48.34;75.01;;
47109;Laerm;32856;51.422;6.794;2023-04-03T00:18:30;52.45;46.71;56.47;;
47109;Laerm;32856;51.422;6.794;2023-04-03T00:20:58;56.22;47.46;74.01;;
47109;Laerm;32856;51.422;6.794;2023-04-03T00:23:25;54.38;49.39;58.44;;
47109;Laerm;32856;51.422;6.794;2023-04-03T00:25:53;53.02;46.25;67.75;;
47109;Laerm;32856;51.422;6.794;2023-04-03T00:28:21;52.19;45.75;59.12;;
47109;Laerm;32856;51.422;6.794;2023-04-03T00:30:48;55.20;47.74;59.84;;
47109;Laerm;32856;51.422;6.794;2023-04-03T00:33:17;53.86;48.90;58.04;;
47109;Laerm;32856;51.422;6.794;2023-04-03T00:35:47;52.97;48.05;57.08;;
47109;Laerm;32856;51.422;6.794;2023-04-03T00:38:15;52.52;48.92;56.67;;
47109;Laerm;32856;51.422;6.794;2023-04-03T00:40:44;56.42;47.63;74.86;;
47109;Laerm;32856;51.422;6.794;2023-04-03T00:43:12;53.76;47.83;69.80;;
47109;Laerm;32856;51.422;6.794;2023-04-03T00:45:41;57.79;48.23;71.00;;
47109;Laerm;32856;51.422;6.794;2023-04-03T00:48:09;52.97;49.62;57.04;;
47109;Laerm;32856;51.422;6.794;2023-04-03T00:50:40;57.48;51.06;71.32;;
47109;Laerm;32856;51.422;6.794;2023-04-03T00:53:09;55.15;50.03;63.32;;
47109;Laerm;32856;51.422;6.794;2023-04-03T00:55:38;52.32;46.62;59.17;;
47109;Laerm;32856;51.422;6.794;2023-04-03T00:58:06;52.64;48.37;57.97;;
47109;Laerm;32856;51.422;6.794;2023-04-03T01:00:37;58.91;49.94;77.27;;
47109;Laerm;32856;51.422;6.794;2023-04-03T01:03:06;53.64;48.52;59.35;;
47109;Laerm;32856;51.422;6.794;2023-04-03T01:05:33;52.99;47.52;58.04;;
47109;Laerm;32856;51.422;6.794;2023-04-03T01:08:02;52.27;47.34;56.82;;
47109;Laerm;32856;51.422;6.794;2023-04-03T01:10:30;53.93;49.81;61.97;;
47109;Laerm;32856;51.422;6.794;2023-04-03T01:12:57;53.20;48.76;57.23;;
47109;Laerm;32856;51.422;6.794;2023-04-03T01:15:26;55.84;47.86;70.50;;
47109;Laerm;32856;51.422;6.794;2023-04-03T01:17:56;56.41;49.23;73.96;;
47109;Laerm;32856;51.422;6.794;2023-04-03T01:20:40;53.01;48.96;58.85;;
47109;Laerm;32856;51.422;6.794;2023-04-03T01:23:14;52.87;47.40;57.32;;
47109;Laerm;32856;51.422;6.794;2023-04-03T01:25:45;53.37;48.52;59.15;;
47109;Laerm;32856;51.422;6.794;2023-04-03T01:28:14;53.44;48.77;57.80;;
47109;Laerm;32856;51.422;6.794;2023-04-03T01:30:43;54.97;49.60;61.81;;
47109;Laerm;32856;51.422;6.794;2023-04-03T01:33:14;53.94;49.94;57.74;;
47109;Laerm;32856;51.422;6.794;2023-04-03T01:35:41;55.64;51.08;67.81;;
47109;Laerm;32856;51.422;6.794;2023-04-03T01:38:09;60.51;49.62;79.31;;
47109;Laerm;32856;51.422;6.794;2023-04-03T01:40:36;55.58;50.22;62.67;;
47109;Laerm;32856;51.422;6.794;2023-04-03T01:43:04;54.50;50.15;60.92;;
47109;Laerm;32856;51.422;6.794;2023-04-03T01:45:34;52.32;47.10;57.41;;
47109;Laerm;32856;51.422;6.794;2023-04-03T01:48:02;54.12;49.47;58.33;;
47109;Laerm;32856;51.422;6.794;2023-04-03T01:50:30;54.76;50.67;59.11;;
47109;Laerm;32856;51.422;6.794;2023-04-03T01:52:58;55.06;50.80;59.14;;
47109;Laerm;32856;51.422;6.794;2023-04-03T01:55:25;55.40;49.18;60.35;;
47109;Laerm;32856;51.422;6.794;2023-04-03T01:57:52;54.63;49.47;59.01;;
47109;Laerm;32856;51.422;6.794;2023-04-03T02:00:20;56.24;50.85;66.93;;
47109;Laerm;32856;51.422;6.794;2023-04-03T02:02:47;58.78;51.98;69.34;;
47109;Laerm;32856;51.422;6.794;2023-04-03T02:05:15;55.33;50.92;64.43;;
47109;Laerm;32856;51.422;6.794;2023-04-03T02:07:43;59.36;51.52;74.83;;
47109;Laerm;32856;51.422;6.794;2023-04-03T02:10:11;59.10;50.37;76.46;;
47109;Laerm;32856;51.422;6.794;2023-04-03T02:12:39;55.43;51.32;59.70;;
47109;Laerm;32856;51.422;6.794;2023-04-03T02:15:06;58.25;52.07;72.12;;
47109;Laerm;32856;51.422;6.794;2023-04-03T02:17:34;56.01;52.24;60.00;;
47109;Laerm;32856;51.422;6.794;2023-04-03T02:20:02;55.54;51.59;60.53;;
47109;Laerm;32856;51.422;6.794;2023-04-03T02:22:30;59.70;50.96;77.67;;
47109;Laerm;32856;51.422;6.794;2023-04-03T02:24:58;58.85;51.53;74.11;;
47109;Laerm;32856;51.422;6.794;2023-04-03T02:27:26;60.51;52.28;78.05;;
47109;Laerm;32856;51.422;6.794;2023-04-03T02:29:53;57.43;51.62;71.50;;
47109;Laerm;32856;51.422;6.794;2023-04-03T02:32:21;61.75;52.66;76.00;;
47109;Laerm;32856;51.422;6.794;2023-04-03T02:34:48;59.20;52.66;78.23;;
47109;Laerm;32856;51.422;6.794;2023-04-03T02:37:15;58.15;53.03;72.17;;
47109;Laerm;32856;51.422;6.794;2023-04-03T02:39:43;60.75;52.31;77.98;;
47109;Laerm;32856;51.422;6.794;2023-04-03T02:42:11;56.91;52.96;60.11;;
47109;Laerm;32856;51.422;6.794;2023-04-03T02:44:38;60.30;52.61;74.17;;
47109;Laerm;32856;51.422;6.794;2023-04-03T02:47:06;59.13;52.23;74.88;;
47109;Laerm;32856;51.422;6.794;2023-04-03T02:49:33;60.16;51.13;78.59;;
47109;Laerm;32856;51.422;6.794;2023-04-03T02:52:00;59.26;53.99;73.69;;
47109;Laerm;32856;51.422;6.794;2023-04-03T02:54:28;58.14;53.06;74.92;;
47109;Laerm;32856;51.422;6.794;2023-04-03T02:56:56;62.28;50.65;78.96;;
47109;Laerm;32856;51.422;6.794;2023-04-03T02:59:25;58.81;53.03;74.71;;
47109;Laerm;32856;51.422;6.794;2023-04-03T03:01:53;60.09;54.08;74.00;;
47109;Laerm;32856;51.422;6.794;2023-04-03T03:04:21;61.44;53.42;78.74;;
47109;Laerm;32856;51.422;6.794;2023-04-03T03:06:49;56.54;53.99;60.69;;
47109;Laerm;32856;51.422;6.794;2023-04-03T03:09:16;58.70;53.55;74.88;;
47109;Laerm;32856;51.422;6.794;2023-04-03T03:11:44;57.32;54.42;59.89;;
47109;Laerm;32856;51.422;6.794;2023-04-03T03:14:11;63.38;54.46;77.12;;
47109;Laerm;32856;51.422;6.794;2023-04-03T03:16:40;62.51;54.54;77.41;;
47109;Laerm;32856;51.422;6.794;2023-04-03T03:19:07;60.98;53.20;74.36;;
47109;Laerm;32856;51.422;6.794;2023-04-03T03:21:34;57.86;54.09;69.67;;
47109;Laerm;32856;51.422;6.794;2023-04-03T03:24:02;60.21;54.54;75.07;;
47109;Laerm;32856;51.422;6.794;2023-04-03T03:26:29;61.94;54.59;76.39;;
47109;Laerm;32856;51.422;6.794;2023-04-03T03:28:56;64.13;54.98;76.36;;
47109;Laerm;32856;51.422;6.794;2023-04-03T03:31:24;61.10;54.43;74.90;;
47109;Laerm;32856;51.422;6.794;2023-04-03T03:33:52;57.50;53.50;70.48;;
47109;Laerm;32856;51.422;6.794;2023-04-03T03:36:20;63.48;55.12;76.56;;
47109;Laerm;32856;51.422;6.794;2023-04-03T03:38:47;62.87;54.90;78.13;;
47109;Laerm;32856;51.422;6.794;2023-04-03T03:41:14;57.41;53.94;61.14;;
47109;Laerm;32856;51.422;6.794;2023-04-03T03:43:41;62.11;55.47;75.91;;
47109;Laerm;32856;51.422;6.794;2023-04-03T03:46:09;64.50;54.20;79.96;;
47109;Laerm;32856;51.422;6.794;2023-04-03T03:48:36;60.89;54.23;76.03;;
47109;Laerm;32856;51.422;6.794;2023-04-03T03:51:05;61.80;52.99;74.94;;
47109;Laerm;32856;51.422;6.794;2023-04-03T03:53:32;62.04;55.17;77.46;;
47109;Laerm;32856;51.422;6.794;2023-04-03T03:56:00;60.50;54.32;74.72;;
47109;Laerm;32856;51.422;6.794;2023-04-03T03:58:27;61.34;54.24;75.47;;
47109;Laerm;32856;51.422;6.794;2023-04-03T04:00:54;62.65;54.94;75.49;;
47109;Laerm;32856;51.422;6.794;2023-04-03T04:03:22;62.29;54.77;75.62;;
47109;Laerm;32856;51.422;6.794;2023-04-03T04:05:49;63.44;54.93;75.75;;
47109;Laerm;32856;51.422;6.794;2023-04-03T04:08:18;63.28;55.46;76.00;;
47109;Laerm;32856;51.422;6.794;2023-04-03T04:10:45;63.33;54.88;76.51;;
47109;Laerm;32856;51.422;6.794;2023-04-03T04:13:12;62.64;54.17;76.46;;
47109;Laerm;32856;51.422;6.794;2023-04-03T04:15:39;62.79;55.51;77.64;;
47109;Laerm;32856;51.422;6.794;2023-04-03T04:18:07;62.21;54.97;77.81;;
47109;Laerm;32856;51.422;6.794;2023-04-03T04:20:34;63.86;56.01;78.31;;
47109;Laerm;32856;51.422;6.794;2023-04-03T04:23:01;65.48;55.55;79.11;;
47109;Laerm;32856;51.422;6.794;2023-04-03T04:25:30;65.17;55.04;77.85;;
47109;Laerm;32856;51.422;6.794;2023-04-03T04:27:58;63.57;55.48;77.45;;
47109;Laerm;32856;51.422;6.794;2023-04-03T04:30:26;62.56;55.46;75.82;;
47109;Laerm;32856;51.422;6.794;2023-04-03T04:32:53;66.38;55.38;80.58;;
47109;Laerm;32856;51.422;6.794;2023-04-03T04:35:21;63.12;55.20;76.53;;
47109;Laerm;32856;51.422;6.794;2023-04-03T04:37:48;62.81;54.52;80.05;;
47109;Laerm;32856;51.422;6.794;2023-04-03T04:40:16;65.37;55.25;81.52;;
47109;Laerm;32856;51.422;6.794;2023-04-03T04:42:45;61.32;55.22;72.15;;
47109;Laerm;32856;51.422;6.794;2023-04-03T04:45:12;62.07;54.30;76.74;;
47109;Laerm;32856;51.422;6.794;2023-04-03T04:47:40;65.13;55.70;76.08;;
47109;Laerm;32856;51.422;6.794;2023-04-03T04:50:08;64.34;54.73;77.16;;
47109;Laerm;32856;51.422;6.794;2023-04-03T04:52:36;62.44;54.51;79.36;;
47109;Laerm;32856;51.422;6.794;2023-04-03T04:55:04;62.10;54.14;77.55;;
47109;Laerm;32856;51.422;6.794;2023-04-03T04:57:31;62.66;55.27;75.35;;
47109;Laerm;32856;51.422;6.794;2023-04-03T05:00:00;65.23;54.90;79.11;;
47109;Laerm;32856;51.422;6.794;2023-04-03T05:02:27;62.98;55.20;78.21;;
47109;Laerm;32856;51.422;6.794;2023-04-03T05:04:55;64.27;55.05;76.97;;
47109;Laerm;32856;51.422;6.794;2023-04-03T05:07:22;63.74;54.96;75.42;;
47109;Laerm;32856;51.422;6.794;2023-04-03T05:09:49;66.41;55.75;79.10;;
47109;Laerm;32856;51.422;6.794;2023-04-03T05:12:17;62.61;54.22;73.36;;
47109;Laerm;32856;51.422;6.794;2023-04-03T05:14:44;64.04;55.22;75.39;;
47109;Laerm;32856;51.422;6.794;2023-04-03T05:17:13;65.46;54.73;77.55;;
47109;Laerm;32856;51.422;6.794;2023-04-03T05:19:40;69.00;54.50;82.29;;
47109;Laerm;32856;51.422;6.794;2023-04-03T05:22:07;65.44;54.73;77.85;;
47109;Laerm;32856;51.422;6.794;2023-04-03T05:24:35;66.74;55.93;77.71;;
47109;Laerm;32856;51.422;6.794;2023-04-03T05:27:02;65.73;55.22;77.29;;
47109;Laerm;32856;51.422;6.794;2023-04-03T05:29:29;67.06;56.04;77.71;;
47109;Laerm;32856;51.422;6.794;2023-04-03T05:31:56;66.42;55.22;79.89;;
47109;Laerm;32856;51.422;6.794;2023-04-03T05:34:25;65.78;56.29;76.91;;
47109;Laerm;32856;51.422;6.794;2023-04-03T05:36:53;64.38;55.72;76.22;;
47109;Laerm;32856;51.422;6.794;2023-04-03T05:39:20;66.19;55.08;77.63;;
47109;Laerm;32856;51.422;6.794;2023-04-03T05:41:49;65.34;55.72;76.82;;
47109;Laerm;32856;51.422;6.794;2023-04-03T05:44:16;63.32;54.81;75.53;;
47109;Laerm;32856;51.422;6.794;2023-04-03T05:46:43;67.90;56.20;80.81;;
47109;Laerm;32856;51.422;6.794;2023-04-03T05:49:11;64.45;56.20;76.71;;
47109;Laerm;32856;51.422;6.794;2023-04-03T05:51:40;66.75;56.03;79.36;;
47109;Laerm;32856;51.422;6.794;2023-04-03T05:54:09;65.96;55.73;78.55;;
47109;Laerm;32856;51.422;6.794;2023-04-03T05:56:39;65.24;56.02;80.87;;
47109;Laerm;32856;51.422;6.794;2023-04-03T05:59:06;62.93;54.07;77.23;;
47109;Laerm;32856;51.422;6.794;2023-04-03T06:01:34;65.80;54.55;78.34;;
47109;Laerm;32856;51.422;6.794;2023-04-03T06:04:01;64.23;55.00;75.94;;
47109;Laerm;32856;51.422;6.794;2023-04-03T06:06:43;64.82;55.53;76.21;;
47109;Laerm;32856;51.422;6.794;2023-04-03T06:09:11;64.65;53.92;79.89;;
47109;Laerm;32856;51.422;6.794;2023-04-03T06:11:38;64.14;53.89;74.17;;
47109;Laerm;32856;51.422;6.794;2023-04-03T06:14:06;65.07;53.62;77.60;;
47109;Laerm;32856;51.422;6.794;2023-04-03T06:16:34;65.10;53.10;79.42;;
47109;Laerm;32856;51.422;6.794;2023-04-03T06:19:04;64.61;53.65;79.12;;
47109;Laerm;32856;51.422;6.794;2023-04-03T06:21:32;62.96;54.02;82.40;;
47109;Laerm;32856;51.422;6.794;2023-04-03T06:24:00;67.72;55.81;82.46;;
47109;Laerm;32856;51.422;6.794;2023-04-03T06:26:28;63.74;55.03;74.48;;
47109;Laerm;32856;51.422;6.794;2023-04-03T06:28:55;63.95;54.31;76.02;;
47109;Laerm;32856;51.422;6.794;2023-04-03T06:31:23;67.11;55.34;78.86;;
47109;Laerm;32856;51.422;6.794;2023-04-03T06:33:50;66.16;55.11;77.04;;
47109;Laerm;32856;51.422;6.794;2023-04-03T06:36:18;65.23;55.75;78.91;;
47109;Laerm;32856;51.422;6.794;2023-04-03T06:38:46;66.66;54.92;81.16;;
47109;Laerm;32856;51.422;6.794;2023-04-03T06:41:15;65.80;54.84;76.23;;
47109;Laerm;32856;51.422;6.794;2023-04-03T06:43:43;65.96;54.99;80.74;;
47109;Laerm;32856;51.422;6.794;2023-04-03T06:46:12;67.95;55.60;81.07;;
47109;Laerm;32856;51.422;6.794;2023-04-03T06:48:40;64.23;55.23;75.72;;
47109;Laerm;32856;51.422;6.794;2023-04-03T06:51:10;64.92;53.28;79.07;;
47109;Laerm;32856;51.422;6.794;2023-04-03T06:53:38;66.65;55.13;80.53;;
47109;Laerm;32856;51.422;6.794;2023-04-03T06:56:05;68.16;54.48;80.02;;
47109;Laerm;32856;51.422;6.794;2023-04-03T06:58:34;64.68;55.43;74.88;;
47109;Laerm;32856;51.422;6.794;2023-04-03T07:01:02;66.23;54.71;77.78;;
47109;Laerm;32856;51.422;6.794;2023-04-03T07:03:29;66.36;54.96;76.62;;
47109;Laerm;32856;51.422;6.794;2023-04-03T07:05:57;64.29;54.27;76.48;;
47109;Laerm;32856;51.422;6.794;2023-04-03T07:08:24;67.47;54.43;82.83;;
47109;Laerm;32856;51.422;6.794;2023-04-03T07:10:52;64.89;55.59;76.53;;
47109;Laerm;32856;51.422;6.794;2023-04-03T07:13:19;65.19;55.80;76.36;;
47109;Laerm;32856;51.422;6.794;2023-04-03T07:15:48;66.69;55.23;80.78;;
47109;Laerm;32856;51.422;6.794;2023-04-03T07:18:16;65.16;54.64;77.77;;
47109;Laerm;32856;51.422;6.794;2023-04-03T07:20:44;64.16;55.21;75.85;;
47109;Laerm;32856;51.422;6.794;2023-04-03T07:23:12;65.62;54.48;76.56;;
47109;Laerm;32856;51.422;6.794;2023-04-03T07:25:42;66.87;56.11;78.72;;
47109;Laerm;32856;51.422;6.794;2023-04-03T07:28:09;62.79;54.66;74.37;;
47109;Laerm;32856;51.422;6.794;2023-04-03T07:30:42;64.02;54.99;75.90;;
47109;Laerm;32856;51.422;6.794;2023-04-03T07:33:10;66.77;55.41;80.13;;
47109;Laerm;32856;51.422;6.794;2023-04-03T07:35:39;64.04;54.78;77.12;;
47109;Laerm;32856;51.422;6.794;2023-04-03T07:38:07;64.72;54.30;80.18;;
47109;Laerm;32856;51.422;6.794;2023-04-03T07:40:34;66.65;55.24;79.55;;
47109;Laerm;32856;51.422;6.794;2023-04-03T07:45:31;65.52;54.00;79.23;;
47109;Laerm;32856;51.422;6.794;2023-04-03T07:47:59;64.60;54.54;75.88;;
47109;Laerm;32856;51.422;6.794;2023-04-03T07:50:29;66.18;54.25;79.89;;
47109;Laerm;32856;51.422;6.794;2023-04-03T07:52:57;66.42;54.88;84.37;;
47109;Laerm;32856;51.422;6.794;2023-04-03T07:55:24;65.06;54.25;77.62;;
47109;Laerm;32856;51.422;6.794;2023-04-03T07:57:52;64.62;53.79;77.33;;
47109;Laerm;32856;51.422;6.794;2023-04-03T08:00:19;64.53;52.88;78.65;;
47109;Laerm;32856;51.422;6.794;2023-04-03T08:02:46;66.33;54.43;77.09;;
47109;Laerm;32856;51.422;6.794;2023-04-03T08:05:16;64.90;54.28;77.53;;
47109;Laerm;32856;51.422;6.794;2023-04-03T08:07:45;66.45;53.54;78.32;;
47109;Laerm;32856;51.422;6.794;2023-04-03T08:10:13;64.26;53.66;75.33;;
47109;Laerm;32856;51.422;6.794;2023-04-03T08:12:41;61.74;54.10;76.78;;
47109;Laerm;32856;51.422;6.794;2023-04-03T08:15:09;62.92;53.40;73.94;;
47109;Laerm;32856;51.422;6.794;2023-04-03T08:17:36;65.90;52.83;82.25;;
47109;Laerm;32856;51.422;6.794;2023-04-03T08:20:04;66.91;54.38;80.90;;
47109;Laerm;32856;51.422;6.794;2023-04-03T08:22:32;62.89;54.37;75.43;;
47109;Laerm;32856;51.422;6.794;2023-04-03T08:25:01;65.41;53.70;81.74;;
47109;Laerm;32856;51.422;6.794;2023-04-03T08:27:28;62.61;52.58;75.18;;
47109;Laerm;32856;51.422;6.794;2023-04-03T08:29:56;65.20;54.11;78.63;;
47109;Laerm;32856;51.422;6.794;2023-04-03T08:32:23;63.75;52.94;74.88;;
47109;Laerm;32856;51.422;6.794;2023-04-03T08:34:51;65.05;54.65;79.10;;
47109;Laerm;32856;51.422;6.794;2023-04-03T08:37:19;64.57;53.37;77.03;;
47109;Laerm;32856;51.422;6.794;2023-04-03T08:39:46;67.53;54.56;83.72;;
47109;Laerm;32856;51.422;6.794;2023-04-03T08:42:18;64.53;55.18;76.78;;
47109;Laerm;32856;51.422;6.794;2023-04-03T08:44:47;63.74;53.99;80.59;;
47109;Laerm;32856;51.422;6.794;2023-04-03T08:47:20;63.94;53.83;76.05;;
47109;Laerm;32856;51.422;6.794;2023-04-03T08:49:51;62.76;53.11;75.90;;
47109;Laerm;32856;51.422;6.794;2023-04-03T08:52:22;66.75;54.26;81.47;;
47109;Laerm;32856;51.422;6.794;2023-04-03T08:54:52;63.37;53.60;77.60;;
47109;Laerm;32856;51.422;6.794;2023-04-03T08:57:25;64.85;53.67;77.46;;
47109;Laerm;32856;51.422;6.794;2023-04-03T08:59:53;66.46;54.88;79.91;;
47109;Laerm;32856;51.422;6.794;2023-04-03T09:02:23;65.73;53.57;76.71;;
47109;Laerm;32856;51.422;6.794;2023-04-03T09:04:53;63.08;54.35;74.15;;
47109;Laerm;32856;51.422;6.794;2023-04-03T09:07:22;64.61;54.36;77.55;;
47109;Laerm;32856;51.422;6.794;2023-04-03T09:09:52;65.68;53.26;78.21;;
47109;Laerm;32856;51.422;6.794;2023-04-03T09:12:21;64.88;54.21;79.94;;
47109;Laerm;32856;51.422;6.794;2023-04-03T09:14:55;65.97;52.02;81.54;;
47109;Laerm;32856;51.422;6.794;2023-04-03T09:17:29;66.06;54.52;80.26;;
47109;Laerm;32856;51.422;6.794;2023-04-03T09:20:03;62.35;52.92;76.72;;
47109;Laerm;32856;51.422;6.794;2023-04-03T09:22:34;64.80;54.39;76.72;;
47109;Laerm;32856;51.422;6.794;2023-04-03T09:25:12;63.13;53.17;75.47;;
47109;Laerm;32856;51.422;6.794;2023-04-03T09:27:41;64.54;53.61;77.17;;
47109;Laerm;32856;51.422;6.794;2023-04-03T09:30:13;64.66;53.04;78.91;;
47109;Laerm;32856;51.422;6.794;2023-04-03T09:32:41;66.42;52.53;80.80;;
47109;Laerm;32856;51.422;6.794;2023-04-03T09:35:15;63.92;53.89;75.85;;
47109;Laerm;32856;51.422;6.794;2023-04-03T09:37:50;62.78;54.07;75.39;;
47109;Laerm;32856;51.422;6.794;2023-04-03T09:43:21;65.86;53.20;79.46;;
47109;Laerm;32856;51.422;6.794;2023-04-03T09:45:50;64.53;52.30;81.90;;
47109;Laerm;32856;51.422;6.794;2023-04-03T09:48:19;66.23;54.77;81.61;;
47109;Laerm;32856;51.422;6.794;2023-04-03T09:50:53;63.20;53.73;75.25;;
47109;Laerm;32856;51.422;6.794;2023-04-03T09:53:26;64.63;53.18;77.34;;
47109;Laerm;32856;51.422;6.794;2023-04-03T09:55:53;66.40;53.74;79.36;;
47109;Laerm;32856;51.422;6.794;2023-04-03T09:58:25;63.26;52.91;74.46;;
47109;Laerm;32856;51.422;6.794;2023-04-03T10:01:03;65.80;54.21;78.57;;
47109;Laerm;32856;51.422;6.794;2023-04-03T10:03:31;64.47;52.58;75.65;;
47109;Laerm;32856;51.422;6.794;2023-04-03T10:06:00;67.15;53.71;77.21;;
47109;Laerm;32856;51.422;6.794;2023-04-03T10:08:29;64.62;54.43;75.76;;
47109;Laerm;32856;51.422;6.794;2023-04-03T10:11:07;66.94;55.52;81.99;;
47109;Laerm;32856;51.422;6.794;2023-04-03T10:13:36;64.37;55.57;77.53;;
47109;Laerm;32856;51.422;6.794;2023-04-03T10:16:16;64.89;53.05;79.77;;
47109;Laerm;32856;51.422;6.794;2023-04-03T10:18:45;65.12;51.91;80.16;;
47109;Laerm;32856;51.422;6.794;2023-04-03T10:21:18;65.92;54.90;77.84;;
47109;Laerm;32856;51.422;6.794;2023-04-03T10:23:54;65.66;54.48;77.79;;
47109;Laerm;32856;51.422;6.794;2023-04-03T10:26:29;62.51;54.10;76.06;;
47109;Laerm;32856;51.422;6.794;2023-04-03T10:29:02;65.40;53.60;76.73;;
47109;Laerm;32856;51.422;6.794;2023-04-03T10:31:36;62.19;53.09;75.91;;
47109;Laerm;32856;51.422;6.794;2023-04-03T10:34:06;68.64;53.80;82.63;;
47109;Laerm;32856;51.422;6.794;2023-04-03T10:36:38;65.38;53.60;78.63;;
47109;Laerm;32856;51.422;6.794;2023-04-03T10:39:12;66.55;54.18;78.02;;
47109;Laerm;32856;51.422;6.794;2023-04-03T10:41:46;63.80;52.38;76.65;;
47109;Laerm;32856;51.422;6.794;2023-04-03T10:44:24;65.01;52.97;77.49;;
47109;Laerm;32856;51.422;6.794;2023-04-03T10:47:00;64.90;54.00;80.19;;
47109;Laerm;32856;51.422;6.794;2023-04-03T10:49:33;63.30;53.34;76.58;;
47109;Laerm;32856;51.422;6.794;2023-04-03T10:52:05;64.63;54.03;79.68;;
47109;Laerm;32856;51.422;6.794;2023-04-03T10:54:36;64.85;52.17;74.88;;
47109;Laerm;32856;51.422;6.794;2023-04-03T10:57:06;64.42;53.47;76.63;;
47109;Laerm;32856;51.422;6.794;2023-04-03T10:59:38;63.07;53.83;79.30;;
47109;Laerm;32856;51.422;6.794;2023-04-03T11:02:13;64.20;53.30;75.97;;
47109;Laerm;32856;51.422;6.794;2023-04-03T11:04:45;65.31;53.27;81.37;;
47109;Laerm;32856;51.422;6.794;2023-04-03T11:07:15;66.76;52.78;82.88;;
47109;Laerm;32856;51.422;6.794;2023-04-03T11:09:44;64.37;55.12;75.70;;
47109;Laerm;32856;51.422;6.794;2023-04-03T11:12:14;66.26;54.33;77.48;;
47109;Laerm;32856;51.422;6.794;2023-04-03T11:14:44;64.98;54.60;77.84;;
47109;Laerm;32856;51.422;6.794;2023-04-03T11:17:23;63.21;52.88;74.56;;
47109;Laerm;32856;51.422;6.794;2023-04-03T11:19:57;65.20;54.03;79.83;;
47109;Laerm;32856;51.422;6.794;2023-04-03T11:22:28;66.81;54.43;81.88;;
47109;Laerm;32856;51.422;6.794;2023-04-03T11:24:59;64.65;53.34;77.07;;
47109;Laerm;32856;51.422;6.794;2023-04-03T11:27:30;64.40;52.93;78.52;;
47109;Laerm;32856;51.422;6.794;2023-04-03T11:30:00;65.43;52.72;76.53;;
47109;Laerm;32856;51.422;6.794;2023-04-03T11:32:33;69.36;55.12;83.69;;
47109;Laerm;32856;51.422;6.794;2023-04-03T11:35:07;62.65;53.39;76.08;;
47109;Laerm;32856;51.422;6.794;2023-04-03T11:37:37;64.27;55.03;75.36;;
47109;Laerm;32856;51.422;6.794;2023-04-03T11:40:06;65.76;54.48;82.65;;
47109;Laerm;32856;51.422;6.794;2023-04-03T11:42:36;65.38;53.29;77.60;;
47109;Laerm;32856;51.422;6.794;2023-04-03T11:47:48;66.59;54.06;79.91;;
47109;Laerm;32856;51.422;6.794;2023-04-03T11:53:31;66.08;54.39;82.18;;
47109;Laerm;32856;51.422;6.794;2023-04-03T11:56:00;65.81;53.15;77.63;;
47109;Laerm;32856;51.422;6.794;2023-04-03T11:58:28;63.69;53.86;74.34;;
47109;Laerm;32856;51.422;6.794;2023-04-03T12:01:00;65.68;52.88;78.64;;
47109;Laerm;32856;51.422;6.794;2023-04-03T12:09:24;66.48;53.06;80.19;;
47109;Laerm;32856;51.422;6.794;2023-04-03T12:11:53;62.76;53.01;77.19;;
47109;Laerm;32856;51.422;6.794;2023-04-03T12:14:22;64.01;52.57;74.15;;
47109;Laerm;32856;51.422;6.794;2023-04-03T12:16:50;66.07;54.48;80.04;;
47109;Laerm;32856;51.422;6.794;2023-04-03T12:19:35;66.28;55.72;79.86;;
47109;Laerm;32856;51.422;6.794;2023-04-03T12:22:12;65.95;53.29;79.34;;
47109;Laerm;32856;51.422;6.794;2023-04-03T12:24:41;65.39;54.91;77.58;;
47109;Laerm;32856;51.422;6.794;2023-04-03T12:27:14;66.13;54.17;80.74;;
47109;Laerm;32856;51.422;6.794;2023-04-03T12:29:46;67.27;55.63;86.24;;
47109;Laerm;32856;51.422;6.794;2023-04-03T12:32:17;64.96;54.29;78.01;;
47109;Laerm;32856;51.422;6.794;2023-04-03T12:34:52;64.60;54.08;76.61;;
47109;Laerm;32856;51.422;6.794;2023-04-03T12:37:28;63.11;52.82;75.59;;
47109;Laerm;32856;51.422;6.794;2023-04-03T12:40:05;67.47;54.14;81.69;;
47109;Laerm;32856;51.422;6.794;2023-04-03T12:42:46;65.40;54.07;77.27;;
47109;Laerm;32856;51.422;6.794;2023-04-03T12:45:22;66.50;55.24;79.93;;
47109;Laerm;32856;51.422;6.794;2023-04-03T12:47:50;66.64;53.22;80.57;;
47109;Laerm;32856;51.422;6.794;2023-04-03T12:50:21;64.54;54.04;74.34;;
47109;Laerm;32856;51.422;6.794;2023-04-03T12:52:57;66.15;54.86;80.18;;
47109;Laerm;32856;51.422;6.794;2023-04-03T12:55:27;65.26;54.84;76.97;;
47109;Laerm;32856;51.422;6.794;2023-04-03T12:57:55;66.10;53.91;77.82;;
47109;Laerm;32856;51.422;6.794;2023-04-03T13:00:29;65.99;53.64;82.93;;
47109;Laerm;32856;51.422;6.794;2023-04-03T13:02:58;65.82;52.56;76.81;;
47109;Laerm;32856;51.422;6.794;2023-04-03T13:05:26;64.90;52.29;80.88;;
47109;Laerm;32856;51.422;6.794;2023-04-03T13:07:56;65.71;54.13;79.12;;
47109;Laerm;32856;51.422;6.794;2023-04-03T13:10:24;65.19;53.75;77.76;;
47109;Laerm;32856;51.422;6.794;2023-04-03T13:12:54;65.50;52.44;77.29;;
47109;Laerm;32856;51.422;6.794;2023-04-03T13:15:22;67.09;53.34;78.82;;
47109;Laerm;32856;51.422;6.794;2023-04-03T13:17:51;66.21;54.29;80.03;;
47109;Laerm;32856;51.422;6.794;2023-04-03T13:20:20;65.73;54.15;76.93;;
47109;Laerm;32856;51.422;6.794;2023-04-03T13:22:49;66.97;52.66;80.22;;
47109;Laerm;32856;51.422;6.794;2023-04-03T13:25:19;65.57;53.30;78.67;;
47109;Laerm;32856;51.422;6.794;2023-04-03T13:27:48;65.75;55.59;83.37;;
47109;Laerm;32856;51.422;6.794;2023-04-03T13:30:23;65.36;53.18;76.97;;
47109;Laerm;32856;51.422;6.794;2023-04-03T13:32:52;63.97;53.55;74.50;;
47109;Laerm;32856;51.422;6.794;2023-04-03T13:38:22;64.45;52.39;77.38;;
47109;Laerm;32856;51.422;6.794;2023-04-03T13:40:49;65.33;54.01;79.67;;
47109;Laerm;32856;51.422;6.794;2023-04-03T13:43:18;67.60;53.32;79.85;;
47109;Laerm;32856;51.422;6.794;2023-04-03T13:46:04;66.03;53.94;78.54;;
47109;Laerm;32856;51.422;6.794;2023-04-03T13:48:37;64.72;51.37;74.67;;
47109;Laerm;32856;51.422;6.794;2023-04-03T13:51:05;66.09;49.66;80.36;;
47109;Laerm;32856;51.422;6.794;2023-04-03T13:53:34;66.56;53.30;81.03;;
47109;Laerm;32856;51.422;6.794;2023-04-03T13:56:09;67.57;53.39;78.95;;
47109;Laerm;32856;51.422;6.794;2023-04-03T13:58:54;65.03;51.87;78.30;;
47109;Laerm;32856;51.422;6.794;2023-04-03T14:01:23;66.05;54.32;80.32;;
47109;Laerm;32856;51.422;6.794;2023-04-03T14:03:52;65.57;54.40;80.23;;
47109;Laerm;32856;51.422;6.794;2023-04-03T14:06:20;65.03;52.74;75.78;;
47109;Laerm;32856;51.422;6.794;2023-04-03T14:08:48;65.71;52.78;77.87;;
47109;Laerm;32856;51.422;6.794;2023-04-03T14:11:16;63.21;51.63;74.64;;
47109;Laerm;32856;51.422;6.794;2023-04-03T14:13:45;67.17;52.72;79.16;;
47109;Laerm;32856;51.422;6.794;2023-04-03T14:16:13;66.74;54.49;78.01;;